Time;durP1;ratioP1;P1;durP2;ratioP2;P2;SDS_P1;SDS_P2;PMS_P1;PMS_P2;Temp;Humidity;BMP_temperature;BMP_pressure;BME280_temperature;BME280_humidity;BME280_pressure;Samples;Min_cycle;Max_cycle;Signal;HPM_P1;HPM_P2
2021/08/27 00:00:48;;;;;;;0.30;0.30;;;16.60;99.90;;;;;;5070161;28;20224;-71
2021/08/27 00:03:15;;;;;;;0.30;0.30;;;16.60;99.90;;;;;;5070197;28;20201;-71
2021/08/27 00:05:42;;;;;;;0.33;0.33;;;16.50;99.90;;;;;;5067567;28;20208;-72
2021/08/27 00:08:09;;;;;;;0.60;0.60;;;16.50;99.90;;;;;;5068632;28;20201;-71
2021/08/27 00:10:36;;;;;;;0.50;0.50;;;16.50;99.90;;;;;;5066892;28;20216;-71
2021/08/27 00:13:03;;;;;;;0.40;0.40;;;16.40;99.90;;;;;;5069055;28;20190;-71
2021/08/27 00:15:31;;;;;;;0.40;0.40;;;16.40;99.90;;;;;;5067908;28;20216;-71
2021/08/27 00:17:58;;;;;;;0.53;0.40;;;16.40;99.90;;;;;;5069612;28;20201;-71
2021/08/27 00:20:25;;;;;;;0.63;0.60;;;16.40;99.90;;;;;;5069739;28;20197;-71
2021/08/27 00:22:52;;;;;;;0.50;0.50;;;15.90;99.90;;;;;;5068040;28;20239;-71
2021/08/27 00:25:19;;;;;;;0.40;0.40;;;16.40;99.90;;;;;;5067050;28;20225;-71
2021/08/27 00:27:46;;;;;;;0.50;0.50;;;16.40;99.90;;;;;;5069138;28;20200;-71
2021/08/27 00:30:14;;;;;;;0.47;0.47;;;16.40;99.90;;;;;;5069555;28;20197;-71
2021/08/27 00:32:42;;;;;;;0.40;0.40;;;16.40;99.90;;;;;;5068098;28;20208;-71
2021/08/27 00:35:09;;;;;;;0.50;0.50;;;16.30;99.90;;;;;;5069267;28;20216;-71
2021/08/27 00:37:36;;;;;;;0.40;0.40;;;16.30;99.90;;;;;;5070135;28;20201;-71
2021/08/27 00:40:04;;;;;;;1.03;0.57;;;16.30;99.90;;;;;;5068282;28;20253;-71
2021/08/27 00:42:31;;;;;;;0.60;0.60;;;16.20;99.90;;;;;;5068229;28;20585;-71
2021/08/27 00:44:58;;;;;;;0.50;0.50;;;16.30;99.90;;;;;;5068513;28;20223;-71
2021/08/27 00:47:25;;;;;;;0.67;0.50;;;16.20;99.90;;;;;;5070366;28;20501;-71
2021/08/27 00:49:54;;;;;;;1.60;0.60;;;16.20;99.90;;;;;;5068225;28;20295;-72
2021/08/27 00:52:21;;;;;;;0.50;0.50;;;16.20;99.90;;;;;;5064310;28;20193;-70
2021/08/27 00:54:50;;;;;;;0.50;0.50;;;16.20;99.90;;;;;;5067951;28;20193;-70
2021/08/27 00:57:17;;;;;;;0.70;0.70;;;16.20;99.90;;;;;;5069951;28;20193;-70
2021/08/27 00:59:44;;;;;;;0.40;0.40;;;16.20;99.90;;;;;;5073088;28;20332;-71
2021/08/27 01:02:11;;;;;;;0.63;0.63;;;16.30;99.90;;;;;;5069420;28;20201;-71
2021/08/27 01:04:39;;;;;;;0.50;0.50;;;16.30;99.90;;;;;;5069099;28;20219;-71
2021/08/27 01:07:19;;;;;;;0.50;0.50;;;16.30;99.90;;;;;;5068753;28;20329;-71
2021/08/27 01:09:53;;;;;;;0.53;0.53;;;16.30;99.90;;;;;;5068404;28;20197;-71
2021/08/27 01:12:27;;;;;;;0.50;0.50;;;16.20;99.90;;;;;;5067527;28;20201;-71
2021/08/27 01:14:59;;;;;;;0.53;0.53;;;16.20;99.90;;;;;;5076940;28;20205;-71
2021/08/27 01:17:34;;;;;;;0.50;0.50;;;16.30;99.90;;;;;;5061100;28;20224;-71
2021/08/27 01:20:47;;;;;;;0.63;0.57;;;16.20;99.90;;;;;;5068428;28;20200;-71
2021/08/27 01:23:33;;;;;;;0.60;0.60;;;16.30;99.90;;;;;;5028310;28;20624;-71
2021/08/27 01:26:03;;;;;;;0.60;0.60;;;16.30;99.90;;;;;;5043208;28;20237;-72
2021/08/27 01:28:34;;;;;;;0.50;0.50;;;16.30;99.90;;;;;;5045006;28;20268;-71
2021/08/27 01:31:16;;;;;;;0.43;0.43;;;16.30;99.90;;;;;;5045967;28;20685;-71
2021/08/27 01:33:56;;;;;;;0.70;0.70;;;16.40;99.90;;;;;;5034640;28;20241;-71
2021/08/27 01:36:25;;;;;;;0.80;0.80;;;16.40;99.90;;;;;;5045563;28;20205;-71
2021/08/27 01:38:53;;;;;;;0.73;0.73;;;16.30;99.90;;;;;;5028180;28;20682;-71
2021/08/27 01:41:21;;;;;;;0.60;0.60;;;16.30;99.90;;;;;;5043875;28;20220;-71
2021/08/27 01:43:51;;;;;;;0.73;0.73;;;16.30;99.90;;;;;;5045094;28;20205;-71
2021/08/27 01:46:20;;;;;;;0.57;0.50;;;16.30;99.90;;;;;;5033067;28;20229;-71
2021/08/27 01:48:48;;;;;;;1.13;0.80;;;16.20;99.90;;;;;;5045652;28;20212;-71
2021/08/27 01:51:16;;;;;;;0.60;0.60;;;16.20;99.90;;;;;;5046074;28;20197;-71
2021/08/27 01:53:45;;;;;;;0.60;0.60;;;16.20;99.90;;;;;;5044507;28;20352;-71
2021/08/27 01:56:13;;;;;;;0.60;0.60;;;15.90;99.90;;;;;;5043259;28;20201;-71
2021/08/27 01:58:40;;;;;;;0.67;0.67;;;16.10;99.90;;;;;;5045093;28;20205;-71
2021/08/27 02:01:07;;;;;;;0.60;0.60;;;16.10;99.90;;;;;;5066768;28;20238;-71
2021/08/27 02:03:35;;;;;;;0.60;0.60;;;16.10;99.90;;;;;;5062767;28;20197;-71
2021/08/27 02:06:03;;;;;;;0.60;0.60;;;16.10;99.90;;;;;;5067889;28;20656;-71
2021/08/27 02:08:31;;;;;;;0.50;0.50;;;16.10;99.90;;;;;;5066976;28;20208;-71
2021/08/27 02:11:01;;;;;;;0.50;0.50;;;16.00;99.90;;;;;;5066483;28;20197;-71
2021/08/27 02:13:30;;;;;;;0.50;0.50;;;16.00;99.90;;;;;;5067764;28;20205;-71
2021/08/27 02:15:57;;;;;;;0.63;0.63;;;16.10;99.90;;;;;;5067496;28;20205;-71
2021/08/27 02:18:24;;;;;;;0.57;0.57;;;16.10;99.90;;;;;;5065763;28;20224;-71
2021/08/27 02:20:53;;;;;;;0.50;0.50;;;16.10;99.90;;;;;;5058643;28;20209;-71
2021/08/27 02:23:23;;;;;;;0.37;0.37;;;16.10;99.90;;;;;;5067632;28;20625;-71
2021/08/27 02:25:51;;;;;;;0.70;0.43;;;16.10;99.90;;;;;;5065472;28;20220;-71
2021/08/27 02:28:21;;;;;;;0.50;0.50;;;16.20;99.90;;;;;;5066844;28;20249;-72
2021/08/27 02:30:49;;;;;;;0.60;0.60;;;16.20;99.90;;;;;;5073203;28;20247;-71
2021/08/27 02:33:17;;;;;;;0.50;0.50;;;16.20;99.90;;;;;;5071781;28;20205;-71
2021/08/27 02:35:46;;;;;;;0.60;0.60;;;16.20;99.90;;;;;;5071283;28;20193;-71
2021/08/27 02:38:18;;;;;;;0.50;0.50;;;16.50;99.90;;;;;;5068220;28;20651;-71
2021/08/27 02:40:45;;;;;;;0.40;0.40;;;16.30;99.90;;;;;;5070108;28;20197;-71
2021/08/27 02:43:12;;;;;;;0.37;0.37;;;16.30;99.90;;;;;;5068151;28;20712;-70
2021/08/27 02:45:41;;;;;;;0.47;0.47;;;16.30;99.90;;;;;;5069855;28;20229;-71
2021/08/27 02:48:08;;;;;;;0.30;0.30;;;16.30;99.90;;;;;;5070936;28;20201;-71
2021/08/27 02:50:41;;;;;;;0.40;0.40;;;16.30;99.90;;;;;;5070103;28;20212;-71
2021/08/27 02:53:13;;;;;;;0.30;0.30;;;16.30;99.90;;;;;;5071446;28;20224;-71
2021/08/27 02:55:44;;;;;;;0.37;0.37;;;16.30;99.90;;;;;;5069825;28;20198;-72
2021/08/27 02:58:13;;;;;;;0.40;0.40;;;16.30;99.90;;;;;;5068783;28;20624;-71
2021/08/27 03:00:51;;;;;;;0.30;0.30;;;16.40;99.90;;;;;;5075260;28;20215;-71
2021/08/27 03:03:20;;;;;;;0.30;0.30;;;16.40;99.90;;;;;;5070480;28;20292;-70
2021/08/27 03:05:48;;;;;;;0.27;0.27;;;16.40;99.90;;;;;;5070972;28;20290;-70
2021/08/27 03:08:20;;;;;;;0.40;0.40;;;16.40;99.90;;;;;;5070616;28;20595;-70
2021/08/27 03:10:52;;;;;;;0.40;0.40;;;16.30;99.90;;;;;;5062956;28;20201;-71
2021/08/27 03:13:26;;;;;;;0.23;0.23;;;16.40;99.90;;;;;;5071888;28;20217;-70
2021/08/27 03:15:59;;;;;;;0.30;0.30;;;16.40;99.90;;;;;;5076670;28;20201;-71
2021/08/27 03:18:31;;;;;;;0.30;0.30;;;16.40;99.90;;;;;;5070594;28;20238;-70
2021/08/27 03:21:03;;;;;;;0.30;0.30;;;16.30;99.90;;;;;;5069400;28;20228;-72
2021/08/27 03:23:34;;;;;;;0.20;0.20;;;16.30;99.90;;;;;;5069896;28;20201;-72
2021/08/27 03:26:03;;;;;;;0.30;0.30;;;16.30;99.90;;;;;;5081126;28;20245;-72
2021/08/27 03:28:39;;;;;;;0.30;0.30;;;16.40;99.90;;;;;;5056200;28;20971;-72
2021/08/27 03:31:09;;;;;;;0.30;0.30;;;16.40;99.90;;;;;;5069542;28;20205;-71
2021/08/27 03:33:37;;;;;;;0.30;0.30;;;16.40;99.90;;;;;;5058717;28;20363;-72
2021/08/27 03:36:05;;;;;;;0.40;0.40;;;16.40;99.90;;;;;;5069801;28;20283;-71
2021/08/27 03:38:34;;;;;;;0.37;0.37;;;16.40;99.90;;;;;;5057829;28;20565;-72
2021/08/27 03:41:01;;;;;;;0.20;0.20;;;16.40;99.90;;;;;;5067529;28;20761;-72
2021/08/27 03:43:28;;;;;;;0.30;0.30;;;16.50;99.90;;;;;;5059260;28;20224;-71
2021/08/27 03:45:59;;;;;;;0.40;0.40;;;16.50;99.90;;;;;;5069680;28;20584;-72
2021/08/27 03:48:29;;;;;;;0.20;0.20;;;16.50;99.90;;;;;;5069874;28;20190;-72
2021/08/27 03:50:57;;;;;;;0.27;0.27;;;16.50;99.90;;;;;;5073742;28;20202;-71
2021/08/27 03:53:24;;;;;;;0.30;0.30;;;16.50;99.90;;;;;;5071469;28;20200;-71
2021/08/27 03:55:52;;;;;;;0.30;0.30;;;16.60;99.90;;;;;;5072405;28;20192;-70
2021/08/27 03:58:22;;;;;;;0.30;0.30;;;16.60;99.90;;;;;;5071595;28;20213;-71
2021/08/27 04:00:50;;;;;;;0.30;0.30;;;16.60;99.90;;;;;;5073332;28;20193;-70
2021/08/27 04:03:19;;;;;;;0.30;0.30;;;16.60;99.90;;;;;;5074186;28;20209;-70
2021/08/27 04:06:00;;;;;;;0.40;0.40;;;16.60;99.90;;;;;;5075321;28;20346;-70
2021/08/27 04:08:27;;;;;;;0.30;0.30;;;16.60;99.90;;;;;;5068391;28;20250;-71
2021/08/27 04:10:54;;;;;;;0.40;0.40;;;16.60;99.90;;;;;;5079095;28;20200;-70
2021/08/27 04:13:21;;;;;;;0.40;0.40;;;16.60;99.90;;;;;;5074469;28;20692;-70
2021/08/27 04:15:48;;;;;;;0.30;0.30;;;16.50;99.90;;;;;;5081188;28;20211;-70
2021/08/27 04:18:15;;;;;;;0.47;0.47;;;16.60;99.90;;;;;;5077721;28;20193;-70
2021/08/27 04:20:42;;;;;;;0.40;0.40;;;16.50;99.90;;;;;;5081884;28;20666;-70
2021/08/27 04:23:10;;;;;;;0.40;0.40;;;16.50;99.90;;;;;;5078093;28;20193;-70
2021/08/27 04:25:37;;;;;;;0.30;0.30;;;16.40;99.90;;;;;;5075439;28;20232;-71
2021/08/27 04:28:05;;;;;;;0.40;0.40;;;16.40;99.90;;;;;;5070539;28;20212;-70
2021/08/27 04:30:34;;;;;;;0.40;0.40;;;16.40;99.90;;;;;;5072952;28;20665;-71
2021/08/27 04:33:01;;;;;;;0.43;0.43;;;16.40;99.90;;;;;;5073478;28;20216;-71
2021/08/27 04:35:28;;;;;;;0.70;0.70;;;16.40;99.90;;;;;;5071749;28;20665;-71
2021/08/27 04:37:55;;;;;;;0.60;0.60;;;16.40;99.90;;;;;;5073921;28;20193;-71
2021/08/27 04:40:25;;;;;;;1.93;0.73;;;16.40;99.90;;;;;;5068715;28;20581;-70
2021/08/27 04:42:52;;;;;;;0.60;0.60;;;16.40;99.90;;;;;;5068896;28;20244;-70
2021/08/27 04:45:19;;;;;;;0.50;0.50;;;16.40;99.90;;;;;;5070039;28;20217;-71
2021/08/27 04:47:46;;;;;;;0.50;0.50;;;16.40;99.90;;;;;;5070938;28;20197;-72
2021/08/27 04:50:13;;;;;;;0.40;0.40;;;16.40;99.90;;;;;;5069592;28;20286;-70
2021/08/27 04:52:41;;;;;;;0.70;0.60;;;16.50;99.90;;;;;;5072390;28;20281;-71
2021/08/27 04:55:09;;;;;;;1.50;0.50;;;16.50;99.90;;;;;;5069886;28;20204;-70
2021/08/27 04:57:40;;;;;;;0.50;0.50;;;16.60;99.90;;;;;;5068838;28;20665;-71
2021/08/27 05:00:09;;;;;;;0.50;0.50;;;16.50;99.90;;;;;;5063989;28;20237;-71
2021/08/27 05:02:36;;;;;;;0.50;0.50;;;16.50;99.90;;;;;;5068837;28;20573;-72
2021/08/27 05:05:04;;;;;;;1.07;0.70;;;16.50;99.90;;;;;;5070823;28;20246;-72
2021/08/27 05:07:31;;;;;;;0.60;0.50;;;16.50;99.90;;;;;;5069544;28;20201;-72
2021/08/27 05:09:58;;;;;;;1.07;0.70;;;16.50;99.90;;;;;;5064517;28;20189;-72
2021/08/27 05:12:24;;;;;;;1.20;0.93;;;16.50;99.90;;;;;;5069124;28;20193;-72
2021/08/27 05:14:53;;;;;;;0.80;0.80;;;16.50;99.90;;;;;;5070766;28;20193;-72
2021/08/27 05:17:20;;;;;;;1.47;0.80;;;16.60;99.90;;;;;;5069014;28;20189;-70
2021/08/27 05:19:47;;;;;;;0.70;0.70;;;16.50;99.90;;;;;;5068794;28;20204;-70
2021/08/27 05:22:14;;;;;;;0.40;0.40;;;16.60;99.90;;;;;;5069281;28;20572;-72
2021/08/27 05:24:40;;;;;;;0.87;0.60;;;16.60;99.90;;;;;;5066586;28;20205;-71
2021/08/27 05:27:07;;;;;;;0.50;0.50;;;16.60;99.90;;;;;;5065521;28;20226;-71
2021/08/27 05:29:34;;;;;;;1.90;0.83;;;16.70;99.90;;;;;;5057327;28;20204;-71
2021/08/27 05:32:03;;;;;;;0.70;0.70;;;16.70;99.90;;;;;;5064143;28;20600;-71
2021/08/27 05:34:30;;;;;;;0.73;0.73;;;16.70;99.90;;;;;;5067742;28;20221;-71
2021/08/27 05:36:57;;;;;;;1.60;0.70;;;16.70;99.90;;;;;;5067936;28;20211;-71
2021/08/27 05:39:27;;;;;;;0.73;0.73;;;16.70;99.90;;;;;;5066761;28;20211;-71
2021/08/27 05:41:54;;;;;;;0.63;0.63;;;16.70;99.90;;;;;;5066740;28;20716;-71
2021/08/27 05:44:22;;;;;;;0.63;0.63;;;16.90;99.90;;;;;;5068288;28;20577;-71
2021/08/27 05:46:50;;;;;;;0.50;0.50;;;17.00;99.90;;;;;;5067871;28;20547;-71
2021/08/27 05:49:18;;;;;;;0.50;0.50;;;17.10;99.90;;;;;;5067351;28;20197;-71
2021/08/27 05:51:45;;;;;;;0.67;0.67;;;17.20;99.90;;;;;;5067610;28;20202;-71
2021/08/27 05:54:12;;;;;;;0.70;0.70;;;17.30;99.90;;;;;;5066646;28;20208;-71
2021/08/27 05:56:39;;;;;;;2.20;0.83;;;17.40;99.90;;;;;;5066803;28;20653;-71
2021/08/27 05:59:06;;;;;;;2.60;1.00;;;17.40;99.90;;;;;;5067341;28;20304;-71
2021/08/27 06:01:33;;;;;;;1.50;1.10;;;17.40;99.90;;;;;;5067594;28;20201;-72
2021/08/27 06:04:00;;;;;;;1.23;1.13;;;17.40;99.90;;;;;;5067377;28;20197;-72
2021/08/27 06:06:29;;;;;;;1.67;1.30;;;17.40;99.90;;;;;;5067718;28;20220;-72
2021/08/27 06:08:56;;;;;;;1.37;1.27;;;17.30;99.90;;;;;;5066211;28;20275;-72
2021/08/27 06:11:23;;;;;;;1.30;1.20;;;17.30;99.90;;;;;;5061447;28;20194;-72
2021/08/27 06:13:50;;;;;;;1.47;1.33;;;17.30;99.90;;;;;;5066539;28;20205;-72
2021/08/27 06:16:17;;;;;;;3.67;1.83;;;17.30;99.90;;;;;;5063324;28;20561;-73
2021/08/27 06:18:44;;;;;;;2.20;1.80;;;17.40;99.90;;;;;;5060104;28;20228;-72
2021/08/27 06:21:12;;;;;;;2.03;1.60;;;17.40;99.90;;;;;;5060579;28;20201;-73
2021/08/27 06:23:40;;;;;;;1.73;1.63;;;17.40;99.90;;;;;;5063907;28;20689;-72
2021/08/27 06:26:07;;;;;;;2.10;1.90;;;17.40;99.90;;;;;;5058401;28;20231;-73
2021/08/27 06:28:34;;;;;;;2.90;2.00;;;17.50;99.90;;;;;;5064538;28;20206;-73
2021/08/27 06:31:01;;;;;;;1.77;1.67;;;17.60;99.90;;;;;;5064643;28;20202;-72
2021/08/27 06:33:29;;;;;;;1.77;1.63;;;17.50;99.90;;;;;;5065573;28;20246;-72
2021/08/27 06:35:56;;;;;;;1.70;1.60;;;17.50;99.90;;;;;;5063975;28;20201;-72
2021/08/27 06:38:24;;;;;;;1.87;1.33;;;17.60;99.90;;;;;;5064418;28;20618;-72
2021/08/27 06:40:56;;;;;;;2.10;1.60;;;17.60;99.90;;;;;;5057949;28;20214;-72
2021/08/27 06:43:27;;;;;;;2.93;1.60;;;17.70;99.90;;;;;;5059353;28;20240;-72
2021/08/27 06:45:55;;;;;;;2.33;1.50;;;17.90;99.90;;;;;;5058607;28;20225;-72
2021/08/27 06:48:22;;;;;;;1.87;1.77;;;18.10;99.90;;;;;;5066974;28;20197;-73
2021/08/27 06:50:49;;;;;;;2.30;2.10;;;18.40;99.90;;;;;;5063344;28;20740;-74
2021/08/27 06:53:16;;;;;;;4.67;2.17;;;18.80;99.90;;;;;;5071588;28;20285;-74
2021/08/27 06:55:44;;;;;;;3.70;2.53;;;19.30;99.90;;;;;;5062675;28;20967;-75
2021/08/27 06:58:12;;;;;;;2.17;1.98;;;19.70;99.90;;;;;;5066578;28;20204;-74
2021/08/27 07:00:40;;;;;;;3.30;1.92;;;20.10;99.90;;;;;;5061364;28;20209;-74
2021/08/27 07:03:07;;;;;;;3.27;1.80;;;20.30;99.90;;;;;;5069096;28;20616;-74
2021/08/27 07:05:34;;;;;;;1.73;1.52;;;20.50;99.90;;;;;;5064811;28;20673;-74
2021/08/27 07:08:01;;;;;;;1.50;1.40;;;20.60;99.90;;;;;;5066620;28;20632;-74
2021/08/27 07:10:28;;;;;;;1.55;1.45;;;20.60;99.90;;;;;;5064404;28;20194;-74
2021/08/27 07:12:55;;;;;;;2.22;1.60;;;20.70;99.90;;;;;;5061428;28;20220;-73
2021/08/27 07:15:25;;;;;;;2.90;1.50;;;20.60;99.90;;;;;;5066130;28;20727;-74
2021/08/27 07:17:52;;;;;;;1.10;1.00;;;20.50;99.90;;;;;;5068218;28;20201;-74
2021/08/27 07:20:20;;;;;;;2.35;1.30;;;20.40;99.90;;;;;;5064896;28;20304;-74
2021/08/27 07:22:47;;;;;;;1.52;1.20;;;20.30;99.90;;;;;;5067588;28;20247;-73
2021/08/27 07:25:15;;;;;;;1.73;1.15;;;20.20;99.90;;;;;;5064630;28;20251;-73
2021/08/27 07:27:43;;;;;;;1.77;0.93;;;20.20;99.90;;;;;;5066459;28;20217;-73
2021/08/27 07:30:12;;;;;;;0.65;0.65;;;20.20;99.90;;;;;;5067609;28;20262;-74
2021/08/27 07:32:40;;;;;;;3.50;1.00;;;20.40;99.90;;;;;;5067284;28;20702;-75
2021/08/27 07:35:08;;;;;;;0.98;0.90;;;20.90;99.90;;;;;;5066177;28;20247;-74
2021/08/27 07:37:37;;;;;;;1.55;1.00;;;21.30;99.90;;;;;;5096791;28;20198;-74
2021/08/27 07:40:05;;;;;;;0.90;0.90;;;21.50;99.90;;;;;;5065427;28;20209;-74
2021/08/27 07:42:32;;;;;;;0.80;0.80;;;21.60;99.90;;;;;;5065498;28;20237;-74
2021/08/27 07:44:59;;;;;;;0.80;0.80;;;21.70;99.90;;;;;;5067567;28;20201;-74
2021/08/27 07:47:26;;;;;;;1.85;1.15;;;21.70;99.90;;;;;;5067128;28;20841;-74
2021/08/27 07:49:54;;;;;;;2.25;1.10;;;21.60;99.90;;;;;;5064095;28;20206;-74
2021/08/27 07:52:21;;;;;;;1.50;1.02;;;21.60;99.90;;;;;;5065698;28;20201;-74
2021/08/27 07:54:48;;;;;;;1.48;1.27;;;21.50;99.90;;;;;;5068364;28;20200;-74
2021/08/27 07:57:15;;;;;;;4.72;1.15;;;21.50;99.90;;;;;;5064560;28;20203;-74
2021/08/27 07:59:42;;;;;;;2.28;1.23;;;21.40;99.90;;;;;;5072294;28;20203;-74
2021/08/27 08:02:09;;;;;;;1.98;1.55;;;21.30;99.90;;;;;;5067688;28;20216;-74
2021/08/27 08:04:35;;;;;;;2.05;1.48;;;21.20;99.90;;;;;;5068029;28;20769;-74
2021/08/27 08:07:04;;;;;;;1.58;1.30;;;21.10;99.90;;;;;;5071487;28;20324;-74
2021/08/27 08:09:31;;;;;;;2.17;1.35;;;20.90;99.90;;;;;;5066206;28;20261;-74
2021/08/27 08:11:58;;;;;;;1.05;1.00;;;20.90;99.90;;;;;;5071605;28;20189;-74
2021/08/27 08:14:25;;;;;;;1.10;1.10;;;20.80;99.90;;;;;;5066003;28;20224;-73
2021/08/27 08:16:52;;;;;;;1.08;0.90;;;20.70;99.90;;;;;;5064746;28;20386;-75
2021/08/27 08:19:19;;;;;;;0.80;0.77;;;20.60;99.90;;;;;;5070474;28;20211;-74
2021/08/27 08:21:46;;;;;;;0.80;0.80;;;20.50;99.90;;;;;;5066219;28;20188;-69
2021/08/27 08:24:15;;;;;;;0.85;0.70;;;20.50;99.90;;;;;;5068029;28;20200;-73
2021/08/27 08:26:42;;;;;;;1.20;0.85;;;20.40;99.90;;;;;;5064067;28;20673;-74
2021/08/27 08:29:09;;;;;;;0.65;0.65;;;20.30;99.90;;;;;;5059656;28;20722;-74
2021/08/27 08:31:36;;;;;;;4.63;1.65;;;20.30;99.90;;;;;;5065853;28;20197;-74
2021/08/27 08:34:03;;;;;;;16.08;3.90;;;20.40;99.90;;;;;;5065463;28;20212;-74
2021/08/27 08:36:30;;;;;;;5.07;2.13;;;20.40;99.90;;;;;;5066841;28;20193;-74
2021/08/27 08:38:57;;;;;;;2.13;1.30;;;20.40;99.90;;;;;;5064989;28;20204;-74
2021/08/27 08:41:25;;;;;;;2.05;1.23;;;20.40;99.90;;;;;;5066731;28;20235;-74
2021/08/27 08:43:52;;;;;;;2.70;1.10;;;20.40;99.90;;;;;;5070855;28;20669;-74
2021/08/27 08:46:23;;;;;;;1.20;0.90;;;20.50;99.90;;;;;;5071804;28;20256;-74
2021/08/27 08:48:52;;;;;;;1.10;1.00;;;20.40;99.90;;;;;;5070318;28;20258;-74
2021/08/27 08:51:23;;;;;;;1.27;0.90;;;20.40;99.90;;;;;;5066281;28;20545;-74
2021/08/27 08:53:51;;;;;;;1.35;1.10;;;20.40;99.90;;;;;;5065736;28;20215;-74
2021/08/27 08:56:20;;;;;;;1.20;1.10;;;20.50;99.90;;;;;;5067095;28;20668;-73
2021/08/27 08:58:49;;;;;;;1.30;1.10;;;20.30;99.90;;;;;;5060350;28;20204;-73
2021/08/27 09:01:17;;;;;;;1.05;1.02;;;20.20;99.90;;;;;;5063940;28;20552;-74
2021/08/27 09:03:45;;;;;;;2.63;1.45;;;20.20;99.90;;;;;;5064365;28;20201;-73
2021/08/27 09:06:13;;;;;;;2.53;1.52;;;20.10;99.90;;;;;;5061285;28;20232;-74
2021/08/27 09:08:44;;;;;;;1.50;1.40;;;20.10;99.90;;;;;;5064782;28;20295;-74
2021/08/27 09:11:19;;;;;;;2.72;1.63;;;20.10;99.90;;;;;;5067267;28;20201;-74
2021/08/27 09:13:50;;;;;;;1.75;1.52;;;20.10;99.90;;;;;;5064075;28;20212;-74
2021/08/27 09:16:17;;;;;;;1.98;1.60;;;20.00;99.90;;;;;;5062840;28;20207;-74
2021/08/27 09:18:47;;;;;;;2.55;1.42;;;20.00;99.90;;;;;;5064287;28;20292;-74
2021/08/27 09:21:28;;;;;;;1.75;1.63;;;20.00;99.90;;;;;;5067151;28;20311;-73
2021/08/27 09:24:23;;;;;;;1.60;1.50;;;20.00;99.90;;;;;;5063211;28;20651;-74
2021/08/27 09:26:53;;;;;;;1.58;1.48;;;19.90;99.90;;;;;;5063333;28;20328;-74
2021/08/27 09:29:36;;;;;;;1.48;1.20;;;19.90;99.90;;;;;;5064468;28;20204;-73
2021/08/27 09:32:21;;;;;;;1.40;1.30;;;19.80;99.90;;;;;;5063747;28;20200;-73
2021/08/27 09:34:58;;;;;;;1.48;1.38;;;19.80;99.90;;;;;;5063853;28;20217;-74
2021/08/27 09:37:45;;;;;;;2.28;1.48;;;19.80;99.90;;;;;;5054322;28;20623;-74
2021/08/27 09:40:14;;;;;;;1.38;1.27;;;19.70;99.90;;;;;;5065803;28;20319;-75
2021/08/27 09:42:43;;;;;;;1.27;1.27;;;19.70;99.90;;;;;;5064614;28;20228;-74
2021/08/27 09:45:12;;;;;;;2.42;1.10;;;19.70;99.90;;;;;;5067401;28;20205;-74
2021/08/27 09:47:40;;;;;;;1.77;1.10;;;19.70;99.90;;;;;;5066415;28;20243;-74
2021/08/27 09:50:24;;;;;;;3.50;1.13;;;19.60;99.90;;;;;;5063232;28;20280;-74
2021/08/27 09:52:59;;;;;;;1.15;1.02;;;19.20;99.90;;;;;;5066043;28;20703;-74
2021/08/27 09:55:28;;;;;;;0.88;0.88;;;19.50;99.90;;;;;;5063842;28;20254;-74
2021/08/27 09:58:06;;;;;;;0.70;0.70;;;19.60;99.90;;;;;;5064808;28;20200;-74
2021/08/27 10:00:39;;;;;;;0.80;0.80;;;19.70;99.90;;;;;;5079139;28;20490;-73
2021/08/27 10:03:20;;;;;;;0.50;0.50;;;19.70;99.90;;;;;;5069978;28;20208;-73
2021/08/27 10:05:49;;;;;;;0.60;0.60;;;19.80;99.90;;;;;;5066685;28;20217;-73
2021/08/27 10:08:18;;;;;;;0.43;0.43;;;19.90;99.90;;;;;;5065491;28;20209;-72
2021/08/27 10:10:45;;;;;;;0.40;0.40;;;19.90;99.90;;;;;;5065033;28;20192;-72
2021/08/27 10:13:13;;;;;;;0.40;0.40;;;20.00;99.90;;;;;;5067010;28;20212;-73
2021/08/27 10:15:42;;;;;;;0.45;0.45;;;20.10;99.90;;;;;;5063389;28;20209;-72
2021/08/27 10:18:10;;;;;;;0.60;0.60;;;20.10;99.90;;;;;;5064005;28;20193;-72
2021/08/27 10:20:39;;;;;;;0.50;0.50;;;20.50;99.90;;;;;;5064004;28;20204;-72
2021/08/27 10:23:08;;;;;;;0.40;0.40;;;21.20;99.90;;;;;;5064743;28;20203;-72
2021/08/27 10:25:35;;;;;;;0.50;0.50;;;21.90;99.90;;;;;;5060557;28;20286;-72
2021/08/27 10:28:03;;;;;;;1.85;0.50;;;22.40;99.90;;;;;;5062661;28;20209;-72
2021/08/27 10:30:57;;;;;;;0.60;0.60;;;22.70;99.90;;;;;;5064489;28;20193;-73
2021/08/27 10:34:03;;;;;;;0.60;0.60;;;23.00;99.90;;;;;;5021855;28;20210;-72
2021/08/27 10:36:50;;;;;;;4.22;0.77;;;23.40;99.90;;;;;;5015521;28;20214;-72
2021/08/27 10:39:41;;;;;;;1.33;0.90;;;23.50;99.90;;;;;;5020073;28;20293;-72
2021/08/27 10:42:10;;;;;;;1.38;0.80;;;23.70;99.90;;;;;;5018179;28;20669;-72
2021/08/27 10:44:54;;;;;;;0.73;0.73;;;23.60;99.90;;;;;;5021680;28;20559;-72
2021/08/27 10:47:23;;;;;;;0.70;0.70;;;23.60;99.90;;;;;;5016360;28;20767;-72
2021/08/27 10:50:01;;;;;;;1.27;0.90;;;24.00;99.90;;;;;;5001968;28;20213;-72
2021/08/27 10:52:34;;;;;;;0.80;0.80;;;24.50;99.90;;;;;;5024436;28;20859;-72
2021/08/27 10:55:18;;;;;;;2.58;2.28;;;25.40;99.90;;;;;;5024124;28;20544;-72
2021/08/27 10:57:48;;;;;;;2.53;2.38;;;26.90;99.90;;;;;;5024382;28;20264;-72
2021/08/27 11:00:30;;;;;;;2.90;2.70;;;27.60;99.30;;;;;;5026252;28;20734;-72
2021/08/27 11:02:59;;;;;;;2.28;2.08;;;27.60;98.20;;;;;;5023513;28;20198;-72
2021/08/27 11:05:36;;;;;;;1.73;1.63;;;28.00;96.80;;;;;;5024877;28;20207;-73
2021/08/27 11:08:05;;;;;;;1.35;1.15;;;28.50;94.80;;;;;;5009304;28;20300;-73
2021/08/27 11:10:33;;;;;;;1.35;1.20;;;29.20;91.10;;;;;;5037808;28;20703;-73
2021/08/27 11:13:01;;;;;;;2.58;0.90;;;29.70;85.90;;;;;;5067462;28;20193;-72
2021/08/27 11:15:30;;;;;;;0.82;0.82;;;29.70;80.70;;;;;;5069366;28;20193;-72
2021/08/27 11:18:34;;;;;;;0.82;0.82;;;29.90;81.00;;;;;;5065196;28;20660;-73
2021/08/27 11:21:29;;;;;;;2.25;1.00;;;30.60;77.80;;;;;;5074451;28;20197;-72
2021/08/27 11:24:12;;;;;;;1.17;1.17;;;31.30;71.40;;;;;;5066927;28;20240;-73
2021/08/27 11:26:45;;;;;;;1.08;1.02;;;32.00;65.10;;;;;;5067218;28;20194;-72
2021/08/27 11:29:31;;;;;;;0.95;0.95;;;32.40;62.10;;;;;;5061921;28;20221;-72
2021/08/27 11:31:58;;;;;;;0.95;0.95;;;32.40;61.10;;;;;;5063352;28;20245;-72
2021/08/27 11:34:48;;;;;;;1.25;1.17;;;31.70;60.80;;;;;;5066064;28;20189;-72
2021/08/27 11:37:17;;;;;;;1.42;1.30;;;30.80;61.10;;;;;;5065619;28;20251;-73
2021/08/27 11:39:46;;;;;;;3.80;1.30;;;29.80;60.90;;;;;;5066266;28;20197;-72
2021/08/27 11:42:13;;;;;;;1.50;1.10;;;29.30;61.30;;;;;;5065679;28;20229;-72
2021/08/27 11:44:42;;;;;;;3.72;1.55;;;29.10;62.20;;;;;;5061805;28;20189;-71
2021/08/27 11:47:11;;;;;;;6.15;1.50;;;28.80;62.80;;;;;;5065848;28;20205;-71
2021/08/27 11:49:46;;;;;;;1.58;1.33;;;28.30;63.80;;;;;;5062805;28;20599;-72
2021/08/27 11:52:27;;;;;;;1.05;1.05;;;27.50;65.50;;;;;;5067419;28;20636;-72
2021/08/27 11:55:02;;;;;;;2.60;1.52;;;26.70;67.70;;;;;;5066078;28;20239;-72
2021/08/27 11:57:29;;;;;;;0.90;0.90;;;26.00;69.70;;;;;;5051189;28;20263;-72
2021/08/27 12:00:08;;;;;;;4.30;3.25;;;25.50;71.60;;;;;;5065342;28;20201;-72
2021/08/27 12:02:39;;;;;;;5.97;4.45;;;25.00;73.80;;;;;;5066280;28;20216;-73
2021/08/27 12:05:11;;;;;;;5.85;4.00;;;24.70;75.80;;;;;;5066730;28;20197;-73
2021/08/27 12:07:49;;;;;;;3.28;2.97;;;24.30;77.30;;;;;;5065991;28;20294;-73
2021/08/27 12:10:17;;;;;;;2.33;1.98;;;24.00;79.00;;;;;;5064684;28;20585;-73
2021/08/27 12:12:46;;;;;;;2.28;2.08;;;23.70;80.10;;;;;;5065579;28;20232;-73
2021/08/27 12:15:14;;;;;;;2.85;2.65;;;23.40;81.50;;;;;;5066750;28;20201;-73
2021/08/27 12:17:52;;;;;;;4.65;4.25;;;23.30;83.30;;;;;;5066416;28;20201;-72
2021/08/27 12:20:20;;;;;;;4.28;3.88;;;23.20;84.90;;;;;;5061020;28;20672;-72
2021/08/27 12:22:53;;;;;;;3.58;3.28;;;23.10;86.50;;;;;;5062514;28;20205;-73
2021/08/27 12:25:25;;;;;;;2.70;2.50;;;23.00;87.80;;;;;;5066741;28;20197;-72
2021/08/27 12:27:54;;;;;;;1.85;1.63;;;22.80;88.60;;;;;;5065125;28;20212;-72
2021/08/27 12:30:21;;;;;;;1.35;1.25;;;22.70;89.30;;;;;;5062898;28;20201;-72
2021/08/27 12:32:49;;;;;;;1.77;1.20;;;22.60;90.00;;;;;;5063928;28;20229;-72
2021/08/27 12:35:20;;;;;;;1.00;1.00;;;22.50;90.30;;;;;;5065004;28;20846;-72
2021/08/27 12:37:50;;;;;;;0.88;0.88;;;22.40;90.70;;;;;;5098039;28;20190;-72
2021/08/27 12:40:19;;;;;;;0.90;0.90;;;22.30;91.10;;;;;;5062224;28;20541;-72
2021/08/27 12:42:59;;;;;;;0.70;0.70;;;22.20;91.50;;;;;;5067203;28;20229;-72
2021/08/27 12:45:27;;;;;;;0.65;0.65;;;22.10;91.80;;;;;;5062998;28;20300;-72
2021/08/27 12:48:06;;;;;;;0.60;0.60;;;22.00;92.20;;;;;;5070961;28;20267;-72
2021/08/27 12:50:48;;;;;;;0.70;0.70;;;22.00;92.70;;;;;;5068020;28;20211;-72
2021/08/27 12:53:17;;;;;;;0.60;0.60;;;21.90;93.10;;;;;;5058449;28;20216;-72
2021/08/27 12:55:44;;;;;;;0.60;0.60;;;21.80;93.50;;;;;;5063705;28;20208;-73
2021/08/27 12:58:11;;;;;;;0.70;0.57;;;21.80;93.90;;;;;;5064449;28;20201;-73
2021/08/27 13:00:38;;;;;;;0.57;0.57;;;21.80;94.30;;;;;;5061096;28;21037;-73
2021/08/27 13:03:10;;;;;;;0.60;0.60;;;21.80;94.60;;;;;;5066214;28;21052;-72